Time;durP1;ratioP1;P1;durP2;ratioP2;P2;SDS_P1;SDS_P2;PMS_P1;PMS_P2;Temp;Humidity;BMP_temperature;BMP_pressure;BME280_temperature;BME280_humidity;BME280_pressure;Samples;Min_cycle;Max_cycle;Signal;HPM_P1;HPM_P2
2022/04/09 00:01:06;;;;;;;0.30;0.10;;;2.90;99.90;;;;;;5113952;28;20456;-64
2022/04/09 00:03:33;;;;;;;0.30;0.10;;;2.90;99.90;;;;;;5112908;28;20848;-63
2022/04/09 00:06:00;;;;;;;0.30;0.10;;;3.00;99.90;;;;;;5111804;28;20847;-62
2022/04/09 00:08:27;;;;;;;0.30;0.10;;;2.90;99.90;;;;;;5114564;28;20843;-63
2022/04/09 00:10:56;;;;;;;0.30;0.10;;;2.80;99.90;;;;;;5115367;28;20432;-63
2022/04/09 00:13:23;;;;;;;0.30;0.10;;;2.80;99.90;;;;;;5113814;28;20522;-63
2022/04/09 00:15:49;;;;;;;0.30;0.10;;;2.80;99.90;;;;;;5116250;28;20467;-63
2022/04/09 00:18:16;;;;;;;0.30;0.10;;;2.60;99.90;;;;;;5115623;28;20791;-62
2022/04/09 00:20:43;;;;;;;0.30;0.10;;;2.80;99.90;;;;;;5115633;28;20462;-61
2022/04/09 00:23:10;;;;;;;0.30;0.10;;;2.90;99.90;;;;;;5113551;28;20918;-62
2022/04/09 00:25:38;;;;;;;1.30;0.10;;;3.10;99.90;;;;;;5114962;28;20814;-61
2022/04/09 00:28:06;;;;;;;0.30;0.17;;;3.00;99.90;;;;;;5115430;28;20481;-61
2022/04/09 00:30:33;;;;;;;0.30;0.10;;;2.80;99.90;;;;;;5115072;28;20426;-61
2022/04/09 00:33:00;;;;;;;0.30;0.20;;;2.90;99.90;;;;;;5112226;28;20533;-60
2022/04/09 00:35:27;;;;;;;0.30;0.10;;;3.00;99.90;;;;;;5115449;28;20495;-60
2022/04/09 00:37:53;;;;;;;0.30;0.10;;;3.00;99.90;;;;;;5114995;28;20523;-60
2022/04/09 00:40:25;;;;;;;0.30;0.10;;;3.10;99.90;;;;;;5109926;28;20787;-59
2022/04/09 00:42:52;;;;;;;0.30;0.20;;;3.10;99.90;;;;;;5110116;28;20526;-60
2022/04/09 00:45:21;;;;;;;0.30;0.20;;;3.00;99.90;;;;;;5110794;28;20455;-59
2022/04/09 00:47:48;;;;;;;0.30;0.20;;;3.00;99.90;;;;;;5111292;28;20956;-59
2022/04/09 00:50:15;;;;;;;0.40;0.20;;;3.10;99.90;;;;;;5111241;28;20916;-59
2022/04/09 00:52:47;;;;;;;0.30;0.10;;;3.10;99.90;;;;;;5111672;28;20822;-59
2022/04/09 00:55:15;;;;;;;0.30;0.10;;;3.00;99.90;;;;;;5112310;28;20423;-59
2022/04/09 00:57:45;;;;;;;0.30;0.20;;;3.00;99.90;;;;;;5112692;28;20416;-58
2022/04/09 01:00:14;;;;;;;0.30;0.13;;;3.10;99.90;;;;;;5111475;28;20524;-58
2022/04/09 01:02:43;;;;;;;0.30;0.10;;;3.20;99.90;;;;;;5111079;28;20439;-57
2022/04/09 01:05:11;;;;;;;0.30;0.10;;;3.10;99.90;;;;;;5115243;28;20456;-58
2022/04/09 01:07:38;;;;;;;0.30;0.10;;;3.20;99.90;;;;;;5113614;28;20709;-57
2022/04/09 01:10:08;;;;;;;0.32;0.10;;;3.20;99.90;;;;;;5113520;28;20464;-57
2022/04/09 01:12:36;;;;;;;0.30;0.10;;;3.20;99.90;;;;;;5113630;28;20850;-57
2022/04/09 01:15:04;;;;;;;0.30;0.10;;;3.10;99.90;;;;;;5115422;28;20899;-57
2022/04/09 01:17:31;;;;;;;0.30;0.15;;;3.10;99.90;;;;;;5112718;28;20518;-58
2022/04/09 01:19:59;;;;;;;0.40;0.20;;;3.10;99.90;;;;;;5110256;28;20920;-56
2022/04/09 01:22:28;;;;;;;0.50;0.20;;;3.10;99.90;;;;;;5110465;28;20519;-55
2022/04/09 01:24:55;;;;;;;0.40;0.20;;;3.00;99.90;;;;;;5111168;28;20499;-56
2022/04/09 01:27:21;;;;;;;0.40;0.20;;;3.10;99.90;;;;;;5110618;28;20531;-53
2022/04/09 01:29:48;;;;;;;0.50;0.30;;;3.10;99.90;;;;;;5110853;28;20730;-56
2022/04/09 01:32:16;;;;;;;0.70;0.20;;;3.10;99.90;;;;;;5112489;28;20463;-55
2022/04/09 01:34:43;;;;;;;0.40;0.20;;;3.20;99.90;;;;;;5113448;28;20416;-56
2022/04/09 01:37:10;;;;;;;0.60;0.30;;;3.10;99.90;;;;;;5111960;28;20543;-54
2022/04/09 01:39:38;;;;;;;0.47;0.20;;;3.10;99.90;;;;;;5114610;28;20459;-54
2022/04/09 01:42:10;;;;;;;0.40;0.20;;;3.20;99.90;;;;;;5113981;28;20522;-54
2022/04/09 01:44:37;;;;;;;0.40;0.20;;;3.30;99.90;;;;;;5113375;28;20737;-51
2022/04/09 01:47:04;;;;;;;0.40;0.20;;;3.30;99.90;;;;;;5118151;28;20527;-55
2022/04/09 01:49:31;;;;;;;0.80;0.20;;;3.40;99.90;;;;;;5118651;28;20507;-55
2022/04/09 01:51:58;;;;;;;0.40;0.20;;;3.50;99.90;;;;;;5118301;28;20518;-55
2022/04/09 01:54:24;;;;;;;1.00;0.30;;;3.50;99.90;;;;;;5115845;28;20520;-50
2022/04/09 01:56:53;;;;;;;0.65;0.35;;;3.50;99.90;;;;;;5115529;28;20779;-52
2022/04/09 01:59:20;;;;;;;0.60;0.25;;;3.50;99.90;;;;;;5118404;28;20415;-54
2022/04/09 02:01:47;;;;;;;0.60;0.35;;;3.50;99.90;;;;;;5118714;28;20459;-54
2022/04/09 02:04:15;;;;;;;0.50;0.30;;;3.50;99.90;;;;;;5116235;28;20435;-55
2022/04/09 02:06:42;;;;;;;0.60;0.40;;;3.50;99.90;;;;;;5118406;28;20519;-54
2022/04/09 02:09:11;;;;;;;0.47;0.30;;;3.40;99.90;;;;;;5117735;28;20420;-55
2022/04/09 02:11:39;;;;;;;1.10;0.40;;;3.50;99.90;;;;;;5116459;28;20435;-53
2022/04/09 02:14:09;;;;;;;0.60;0.40;;;3.50;99.90;;;;;;5113420;28;20458;-55
2022/04/09 02:16:36;;;;;;;0.60;0.30;;;3.40;99.90;;;;;;5117287;28;20575;-54
2022/04/09 02:19:03;;;;;;;0.80;0.40;;;3.50;99.90;;;;;;5116448;28;20459;-53
2022/04/09 02:21:30;;;;;;;1.10;0.40;;;3.50;99.90;;;;;;5116460;28;20535;-53
2022/04/09 02:23:57;;;;;;;0.65;0.40;;;3.60;99.90;;;;;;5116242;28;20820;-54
2022/04/09 02:26:24;;;;;;;0.70;0.40;;;3.50;99.90;;;;;;5118357;28;20507;-54
2022/04/09 02:28:52;;;;;;;0.60;0.40;;;3.50;99.90;;;;;;5117939;28;20455;-50
2022/04/09 02:31:20;;;;;;;0.60;0.40;;;3.60;99.90;;;;;;5116618;27;20920;-51
2022/04/09 02:33:48;;;;;;;0.90;0.40;;;3.70;99.90;;;;;;5116519;28;20489;-51
2022/04/09 02:36:15;;;;;;;0.80;0.43;;;3.80;99.90;;;;;;5117809;28;20540;-51
2022/04/09 02:38:43;;;;;;;1.80;0.47;;;3.70;99.90;;;;;;5118117;28;20712;-52
2022/04/09 02:41:10;;;;;;;0.80;0.50;;;3.70;99.90;;;;;;5115212;28;20442;-54
2022/04/09 02:43:37;;;;;;;0.90;0.50;;;3.60;99.90;;;;;;5117716;28;20729;-54
2022/04/09 02:46:04;;;;;;;0.60;0.40;;;3.50;99.90;;;;;;5117588;28;20730;-55
2022/04/09 02:48:32;;;;;;;0.60;0.40;;;3.50;99.90;;;;;;5116588;28;20891;-53
2022/04/09 02:50:59;;;;;;;0.80;0.50;;;3.30;99.90;;;;;;5117909;28;20503;-57
2022/04/09 02:53:26;;;;;;;1.00;0.40;;;3.20;99.90;;;;;;5115509;28;20432;-53
2022/04/09 02:55:54;;;;;;;0.60;0.40;;;3.20;99.90;;;;;;5117391;28;20462;-54
2022/04/09 02:58:21;;;;;;;0.77;0.45;;;3.20;99.90;;;;;;5116800;28;20453;-54
2022/04/09 03:00:48;;;;;;;0.60;0.40;;;3.30;99.90;;;;;;5115299;28;20465;-53
2022/04/09 03:03:14;;;;;;;1.13;0.50;;;3.40;99.90;;;;;;5117013;28;20447;-53
2022/04/09 03:05:43;;;;;;;0.70;0.40;;;3.50;99.90;;;;;;5116133;28;20875;-50
2022/04/09 03:08:10;;;;;;;0.50;0.40;;;3.60;99.90;;;;;;5116315;28;20428;-55
2022/04/09 03:10:37;;;;;;;0.60;0.40;;;3.60;99.90;;;;;;5116580;28;20412;-54
2022/04/09 03:13:04;;;;;;;0.60;0.38;;;3.60;99.90;;;;;;5116654;28;20462;-55
2022/04/09 03:15:31;;;;;;;0.50;0.30;;;3.60;99.90;;;;;;5117168;28;20417;-54
2022/04/09 03:17:58;;;;;;;1.00;0.40;;;3.60;99.90;;;;;;5116081;28;20898;-53
2022/04/09 03:20:26;;;;;;;0.50;0.30;;;3.50;99.90;;;;;;5116435;28;20431;-55
2022/04/09 03:22:54;;;;;;;0.57;0.30;;;3.50;99.90;;;;;;5117165;28;20542;-51
2022/04/09 03:25:21;;;;;;;0.60;0.40;;;3.50;99.90;;;;;;5115814;28;20440;-53
2022/04/09 03:27:48;;;;;;;0.70;0.40;;;3.50;99.90;;;;;;5116480;28;20420;-54
2022/04/09 03:30:15;;;;;;;0.60;0.50;;;3.50;99.90;;;;;;5114705;28;20475;-55
2022/04/09 03:32:42;;;;;;;0.70;0.50;;;3.70;99.90;;;;;;5116436;28;20528;-54
2022/04/09 03:35:11;;;;;;;0.60;0.40;;;3.80;99.90;;;;;;5114563;28;20497;-55
2022/04/09 03:37:38;;;;;;;0.70;0.50;;;3.80;99.90;;;;;;5117300;28;20432;-52
2022/04/09 03:40:08;;;;;;;0.90;0.50;;;3.90;99.90;;;;;;5115614;28;20747;-51
2022/04/09 03:42:35;;;;;;;1.10;0.60;;;3.90;99.90;;;;;;5116728;28;20802;-51
2022/04/09 03:45:03;;;;;;;0.80;0.60;;;3.90;99.90;;;;;;5114768;27;20523;-54
2022/04/09 03:47:32;;;;;;;1.00;0.77;;;3.90;99.90;;;;;;5115881;28;20507;-52
2022/04/09 03:50:01;;;;;;;1.20;0.70;;;3.90;99.90;;;;;;5114338;28;20459;-51
2022/04/09 03:52:28;;;;;;;1.30;0.70;;;3.80;99.90;;;;;;5116412;28;20439;-53
2022/04/09 03:54:54;;;;;;;2.10;1.00;;;3.60;99.90;;;;;;5115518;28;20592;-56
2022/04/09 03:57:23;;;;;;;2.25;0.90;;;3.60;99.90;;;;;;5116694;28;20531;-53
2022/04/09 03:59:54;;;;;;;1.60;1.00;;;3.70;99.90;;;;;;5114899;28;20522;-55
2022/04/09 04:02:21;;;;;;;2.00;1.00;;;3.80;99.90;;;;;;5116289;28;20453;-55
2022/04/09 04:04:47;;;;;;;2.70;1.30;;;3.80;99.90;;;;;;5113997;28;20467;-51
2022/04/09 04:07:15;;;;;;;2.50;1.20;;;3.70;99.90;;;;;;5114352;28;20773;-55
2022/04/09 04:09:41;;;;;;;2.70;1.30;;;3.70;99.90;;;;;;5113028;28;20432;-49
2022/04/09 04:12:09;;;;;;;2.80;1.20;;;3.70;99.90;;;;;;5114638;28;20423;-55
2022/04/09 04:14:37;;;;;;;3.13;1.35;;;3.70;99.90;;;;;;5115400;28;20470;-50
2022/04/09 04:17:04;;;;;;;2.20;1.10;;;3.90;99.90;;;;;;5114711;28;20432;-51
2022/04/09 04:19:31;;;;;;;1.90;1.20;;;3.80;99.90;;;;;;5114358;28;21014;-51
2022/04/09 04:21:58;;;;;;;3.40;1.40;;;3.80;99.90;;;;;;5113424;28;20527;-55
2022/04/09 04:24:25;;;;;;;2.95;1.30;;;3.80;99.90;;;;;;5114226;28;20788;-55
2022/04/09 04:26:52;;;;;;;2.40;1.40;;;3.90;99.90;;;;;;5113578;28;20502;-54
2022/04/09 04:29:19;;;;;;;2.70;1.50;;;3.70;99.90;;;;;;5112943;28;20432;-54
2022/04/09 04:31:47;;;;;;;4.50;1.65;;;3.70;99.90;;;;;;5112880;28;20436;-53
2022/04/09 04:34:14;;;;;;;5.72;1.60;;;3.60;99.90;;;;;;5114059;28;20503;-55
2022/04/09 04:36:40;;;;;;;3.10;1.90;;;3.60;99.90;;;;;;5114844;28;20436;-53
2022/04/09 04:39:07;;;;;;;2.78;1.50;;;3.70;99.90;;;;;;5115926;28;20771;-55
2022/04/09 04:41:34;;;;;;;2.95;1.50;;;3.70;99.90;;;;;;5114793;28;20535;-57
2022/04/09 04:44:01;;;;;;;4.28;1.40;;;3.80;99.90;;;;;;5115122;28;20423;-54
2022/04/09 04:46:28;;;;;;;2.58;1.20;;;3.80;99.90;;;;;;5112832;28;20439;-53
2022/04/09 04:48:56;;;;;;;3.42;1.50;;;3.70;99.90;;;;;;5112221;28;20474;-51
2022/04/09 04:51:23;;;;;;;4.60;1.63;;;3.70;99.90;;;;;;5112298;28;20566;-52
2022/04/09 04:53:50;;;;;;;2.60;1.50;;;3.60;99.90;;;;;;5113961;28;20904;-52
2022/04/09 04:56:17;;;;;;;3.03;1.50;;;3.60;99.90;;;;;;5114089;28;20412;-53
2022/04/09 04:58:44;;;;;;;2.15;1.38;;;3.60;99.90;;;;;;5111090;28;20460;-55
2022/04/09 05:01:11;;;;;;;2.15;1.27;;;3.60;99.90;;;;;;5114516;28;20507;-55
2022/04/09 05:03:39;;;;;;;2.17;1.30;;;3.60;99.90;;;;;;5115009;28;20512;-53
2022/04/09 05:06:08;;;;;;;4.50;1.70;;;3.70;99.90;;;;;;5114509;28;20803;-52
2022/04/09 05:08:35;;;;;;;2.40;1.30;;;3.60;99.90;;;;;;5114546;28;20504;-53
2022/04/09 05:11:02;;;;;;;2.10;1.20;;;3.60;99.90;;;;;;5115708;28;20534;-53
2022/04/09 05:13:29;;;;;;;2.60;1.20;;;3.50;99.90;;;;;;5115121;28;20492;-53
2022/04/09 05:15:55;;;;;;;2.30;1.30;;;3.70;99.90;;;;;;5114068;28;20499;-55
2022/04/09 05:18:22;;;;;;;3.70;1.50;;;3.80;99.90;;;;;;5114859;28;20527;-55
2022/04/09 05:20:51;;;;;;;2.08;1.30;;;3.80;99.90;;;;;;5118674;28;20452;-53
2022/04/09 05:23:19;;;;;;;2.80;1.30;;;3.80;99.90;;;;;;5117940;28;20510;-52
2022/04/09 05:25:46;;;;;;;2.17;1.30;;;3.90;99.90;;;;;;5115643;28;20484;-51
2022/04/09 05:28:13;;;;;;;3.00;1.40;;;3.90;99.90;;;;;;5117504;28;20412;-50
2022/04/09 05:30:43;;;;;;;1.50;1.10;;;3.90;99.90;;;;;;5117836;28;20515;-50
2022/04/09 05:33:10;;;;;;;3.05;1.30;;;4.00;99.90;;;;;;5118268;28;20508;-54
2022/04/09 05:35:37;;;;;;;1.55;1.10;;;3.90;99.90;;;;;;5116366;28;20555;-49
2022/04/09 05:38:04;;;;;;;3.03;1.40;;;3.90;99.90;;;;;;5118618;28;20517;-54
2022/04/09 05:40:33;;;;;;;2.00;1.30;;;3.90;99.90;;;;;;5118831;28;20510;-55
2022/04/09 05:43:01;;;;;;;2.60;1.52;;;3.80;99.90;;;;;;5119144;28;20442;-53
2022/04/09 05:45:27;;;;;;;2.03;1.20;;;3.80;99.90;;;;;;5116398;28;20527;-53
2022/04/09 05:47:54;;;;;;;2.30;1.40;;;3.70;99.90;;;;;;5118104;28;20511;-54
2022/04/09 05:50:21;;;;;;;3.10;1.40;;;3.80;99.90;;;;;;5118447;28;20891;-53
2022/04/09 05:52:50;;;;;;;2.37;1.30;;;3.90;99.90;;;;;;5118606;28;20518;-51
2022/04/09 05:55:17;;;;;;;4.10;1.90;;;4.00;99.90;;;;;;5115180;27;20441;-50
2022/04/09 05:57:45;;;;;;;2.75;1.48;;;4.10;99.90;;;;;;5116687;28;20427;-49
2022/04/09 06:00:16;;;;;;;1.60;1.20;;;4.20;99.90;;;;;;5117079;28;20412;-51
2022/04/09 06:02:44;;;;;;;2.40;1.30;;;4.10;99.90;;;;;;5114051;28;20763;-47
2022/04/09 06:05:11;;;;;;;3.20;1.23;;;4.10;99.90;;;;;;5108735;28;20435;-48
2022/04/09 06:07:38;;;;;;;2.20;1.10;;;4.00;99.90;;;;;;5113044;28;20436;-49
2022/04/09 06:10:06;;;;;;;1.50;0.93;;;3.90;99.90;;;;;;5109839;28;20430;-51
2022/04/09 06:12:33;;;;;;;2.10;1.20;;;3.70;99.90;;;;;;5110292;28;20472;-52
2022/04/09 06:15:02;;;;;;;1.73;1.20;;;4.00;99.90;;;;;;5112469;28;20432;-49
2022/04/09 06:17:29;;;;;;;2.15;1.00;;;4.30;99.90;;;;;;5114586;28;20436;-51
2022/04/09 06:19:56;;;;;;;4.50;1.20;;;4.40;99.90;;;;;;5116277;28;20533;-52
2022/04/09 06:22:23;;;;;;;3.08;1.13;;;4.20;99.90;;;;;;5112271;28;20435;-51
2022/04/09 06:24:51;;;;;;;1.60;1.00;;;4.00;99.90;;;;;;5117351;28;20415;-46
2022/04/09 06:27:17;;;;;;;2.90;1.20;;;4.10;99.90;;;;;;5117086;28;20847;-48
2022/04/09 06:29:44;;;;;;;1.60;1.10;;;4.10;99.90;;;;;;5112865;28;20821;-51
2022/04/09 06:32:13;;;;;;;1.50;1.07;;;4.00;99.90;;;;;;5112619;28;20471;-47
2022/04/09 06:34:40;;;;;;;2.33;1.02;;;4.00;99.90;;;;;;5114266;28;20454;-55
2022/04/09 06:37:07;;;;;;;2.80;1.10;;;4.10;99.90;;;;;;5113841;28;20442;-49
2022/04/09 06:39:35;;;;;;;2.38;1.20;;;4.30;99.90;;;;;;5115452;28;20507;-50
2022/04/09 06:42:02;;;;;;;1.80;1.00;;;4.40;99.90;;;;;;5113320;28;20431;-52
2022/04/09 06:44:29;;;;;;;1.70;0.90;;;4.30;99.90;;;;;;5115122;28;20535;-52
2022/04/09 06:46:56;;;;;;;2.00;1.02;;;4.20;99.90;;;;;;5114540;28;20895;-47
2022/04/09 06:49:24;;;;;;;1.83;1.10;;;4.60;99.90;;;;;;5117293;28;20507;-53
2022/04/09 06:51:51;;;;;;;2.20;1.00;;;4.70;99.90;;;;;;5116059;28;20804;-49
2022/04/09 06:54:20;;;;;;;1.27;0.90;;;4.70;99.90;;;;;;5113984;28;21040;-50
2022/04/09 06:56:47;;;;;;;1.60;0.90;;;4.70;95.90;;;;;;5115544;28;20432;-50
2022/04/09 06:59:13;;;;;;;2.20;1.00;;;4.60;99.90;;;;;;5116035;28;20432;-50
2022/04/09 07:01:40;;;;;;;1.70;1.00;;;4.80;99.90;;;;;;5116055;28;20432;-53
2022/04/09 07:04:08;;;;;;;1.88;0.90;;;4.60;99.90;;;;;;5114358;28;20421;-52
2022/04/09 07:06:36;;;;;;;2.70;1.00;;;4.50;99.90;;;;;;5117227;28;20500;-54
2022/04/09 07:09:03;;;;;;;2.15;1.00;;;4.50;99.90;;;;;;5114337;28;20507;-52
2022/04/09 07:11:30;;;;;;;2.17;0.90;;;4.60;99.90;;;;;;5115240;28;20518;-53
2022/04/09 07:13:57;;;;;;;3.10;1.10;;;4.60;99.90;;;;;;5112872;28;20428;-52
2022/04/09 07:16:24;;;;;;;1.70;1.00;;;4.80;99.90;;;;;;5114607;28;20440;-49
2022/04/09 07:18:51;;;;;;;2.60;0.95;;;4.90;99.90;;;;;;5115878;28;20423;-50
2022/04/09 07:21:18;;;;;;;2.10;1.00;;;4.80;99.90;;;;;;5116096;28;20810;-54
2022/04/09 07:23:46;;;;;;;4.17;2.40;;;4.70;99.90;;;;;;5114149;28;20475;-49
2022/04/09 07:26:13;;;;;;;5.90;3.35;;;4.80;99.90;;;;;;5113879;28;20428;-53
2022/04/09 07:28:40;;;;;;;4.15;2.00;;;5.00;99.90;;;;;;5114051;28;20491;-53
2022/04/09 07:31:07;;;;;;;4.10;1.80;;;5.10;99.90;;;;;;5112940;28;20428;-54
2022/04/09 07:33:33;;;;;;;1.67;0.90;;;5.10;99.90;;;;;;5112986;28;20420;-54
2022/04/09 07:36:00;;;;;;;2.15;0.90;;;5.10;92.40;;;;;;5114657;28;20719;-54
2022/04/09 07:38:27;;;;;;;2.95;1.00;;;5.20;95.10;;;;;;5110519;28;20431;-56
2022/04/09 07:40:55;;;;;;;1.98;0.90;;;5.20;99.90;;;;;;5111809;28;20502;-54
2022/04/09 07:43:22;;;;;;;2.38;0.90;;;5.60;99.90;;;;;;5111786;28;20442;-51
2022/04/09 07:45:49;;;;;;;2.10;0.90;;;5.50;68.40;;;;;;5111128;28;20444;-50
2022/04/09 07:48:16;;;;;;;3.00;1.00;;;5.50;91.90;;;;;;5108881;28;20515;-56
2022/04/09 07:50:43;;;;;;;1.92;0.90;;;5.60;79.00;;;;;;5103446;28;20440;-54
2022/04/09 07:53:11;;;;;;;2.15;0.90;;;5.80;95.00;;;;;;5110449;28;20483;-54
2022/04/09 07:55:38;;;;;;;1.40;0.90;;;5.90;11.40;;;;;;5111259;28;20504;-54
2022/04/09 07:58:11;;;;;;;2.70;0.90;;;6.00;27.00;;;;;;5105562;28;20954;-55
2022/04/09 08:00:40;;;;;;;3.05;0.85;;;6.00;41.50;;;;;;5106925;28;20722;-56
2022/04/09 08:03:08;;;;;;;1.40;0.90;;;5.90;15.40;;;;;;5112349;28;20476;-53
2022/04/09 08:05:35;;;;;;;2.60;0.90;;;5.70;39.60;;;;;;5107384;28;20439;-57
2022/04/09 08:08:03;;;;;;;1.40;0.90;;;6.10;78.30;;;;;;5113866;28;20424;-53
2022/04/09 08:10:30;;;;;;;2.20;0.85;;;6.20;1.00;;;;;;5113272;28;20423;-56
2022/04/09 08:12:58;;;;;;;1.90;0.90;;;6.40;13.90;;;;;;5115109;28;20828;-56
2022/04/09 08:15:27;;;;;;;2.10;0.80;;;6.40;26.00;;;;;;5112533;28;20809;-57
2022/04/09 08:17:56;;;;;;;1.63;0.88;;;6.30;1.00;;;;;;5113605;28;20902;-55
2022/04/09 08:20:23;;;;;;;2.08;0.90;;;6.40;11.70;;;;;;5113887;28;20428;-55
2022/04/09 08:22:51;;;;;;;2.90;0.80;;;6.50;1.00;;;;;;5112949;28;20522;-54
2022/04/09 08:25:18;;;;;;;1.45;0.70;;;6.50;12.80;;;;;;5112435;28;20436;-52
2022/04/09 08:27:49;;;;;;;1.90;0.80;;;6.70;10.90;;;;;;5114195;28;20511;-57
2022/04/09 08:30:16;;;;;;;2.67;0.80;;;6.80;1.00;;;;;;5113673;28;20503;-53
2022/04/09 08:32:45;;;;;;;3.30;0.80;;;6.70;1.00;;;;;;5110458;28;20428;-55
2022/04/09 08:35:12;;;;;;;1.35;0.70;;;6.50;1.00;;;;;;5113634;28;20420;-54
2022/04/09 08:37:41;;;;;;;2.10;0.70;;;6.50;1.00;;;;;;5113292;28;20846;-53
2022/04/09 08:40:13;;;;;;;4.40;0.75;;;6.10;1.00;;;;;;5112176;28;20459;-55
2022/04/09 08:42:40;;;;;;;1.10;0.60;;;6.10;23.00;;;;;;5105662;28;20463;-56
2022/04/09 08:45:09;;;;;;;0.98;0.65;;;6.40;1.00;;;;;;5112456;28;20431;-53
2022/04/09 08:47:36;;;;;;;2.20;0.80;;;6.50;1.00;;;;;;5113558;28;20419;-55
2022/04/09 08:50:09;;;;;;;2.10;0.70;;;6.40;1.00;;;;;;5109067;28;20416;-57
2022/04/09 08:52:38;;;;;;;1.10;0.77;;;6.40;1.00;;;;;;5108656;28;20867;-56
2022/04/09 08:55:07;;;;;;;1.90;0.70;;;6.60;1.00;;;;;;5109175;28;20424;-58
2022/04/09 08:57:35;;;;;;;1.80;0.80;;;6.40;1.00;;;;;;5111292;28;20428;-55
2022/04/09 09:00:06;;;;;;;1.20;0.70;;;6.40;1.00;;;;;;5104362;28;20424;-57
2022/04/09 09:02:34;;;;;;;2.70;0.80;;;6.50;1.00;;;;;;5104635;28;20432;-57
2022/04/09 09:05:02;;;;;;;1.60;0.80;;;6.70;1.00;;;;;;5108312;28;20473;-58
2022/04/09 09:07:30;;;;;;;2.43;0.80;;;6.70;1.00;;;;;;5109712;28;20510;-58
2022/04/09 09:10:15;;;;;;;2.92;0.80;;;6.80;1.00;;;;;;5111747;28;20416;-58
2022/04/09 09:12:42;;;;;;;1.70;0.80;;;6.70;1.00;;;;;;5094473;28;20487;-57
2022/04/09 09:15:10;;;;;;;3.15;0.70;;;6.70;1.00;;;;;;5107341;28;20432;-58
2022/04/09 09:17:37;;;;;;;1.02;0.55;;;7.10;1.00;;;;;;5108963;28;20428;-58
2022/04/09 09:20:13;;;;;;;3.20;0.70;;;7.50;1.00;;;;;;5110478;28;20489;-58
2022/04/09 09:22:43;;;;;;;1.42;0.80;;;7.70;1.00;;;;;;5110633;28;20428;-58
2022/04/09 09:25:12;;;;;;;1.70;0.70;;;7.60;1.00;;;;;;5107125;28;20436;-58
2022/04/09 09:27:40;;;;;;;1.40;0.70;;;7.50;1.00;;;;;;5110702;28;20522;-58
2022/04/09 09:30:10;;;;;;;2.20;0.60;;;7.50;1.00;;;;;;5110436;28;20444;-60
2022/04/09 09:32:41;;;;;;;2.60;0.70;;;7.80;1.00;;;;;;5110524;28;20427;-59
2022/04/09 09:35:12;;;;;;;1.42;0.60;;;7.90;1.00;;;;;;5105724;28;20435;-59
2022/04/09 09:37:39;;;;;;;2.92;0.68;;;7.70;1.00;;;;;;5098240;28;20517;-59
2022/04/09 09:40:09;;;;;;;1.30;0.70;;;7.90;1.00;;;;;;5096891;28;20435;-59
2022/04/09 09:42:36;;;;;;;2.63;0.60;;;7.80;1.00;;;;;;5101351;28;20493;-58
2022/04/09 09:45:04;;;;;;;2.00;0.60;;;7.40;1.00;;;;;;5101782;28;20435;-59
2022/04/09 09:47:31;;;;;;;1.30;0.60;;;7.50;1.00;;;;;;5108615;28;20852;-59
2022/04/09 09:49:58;;;;;;;1.50;0.60;;;7.30;1.00;;;;;;5109666;28;20455;-60
2022/04/09 09:52:29;;;;;;;2.25;0.70;;;7.60;1.00;;;;;;5105728;28;20753;-58
2022/04/09 09:55:01;;;;;;;3.93;0.73;;;7.60;1.00;;;;;;5105204;28;20443;-59
2022/04/09 09:57:32;;;;;;;1.20;0.68;;;7.70;1.00;;;;;;5108450;28;20428;-59
2022/04/09 10:00:01;;;;;;;2.50;0.60;;;7.70;1.00;;;;;;5107179;28;20432;-59
2022/04/09 10:02:28;;;;;;;1.20;0.70;;;7.70;1.00;;;;;;5109799;28;20431;-59
2022/04/09 10:04:56;;;;;;;2.28;0.68;;;8.10;1.00;;;;;;5111440;28;20432;-59
2022/04/09 10:07:25;;;;;;;1.60;0.70;;;8.60;1.00;;;;;;5111935;28;20498;-59
2022/04/09 10:09:53;;;;;;;3.00;0.70;;;9.10;1.00;;;;;;5110991;28;20471;-59
2022/04/09 10:12:22;;;;;;;1.10;0.70;;;9.40;1.00;;;;;;5107513;28;20436;-60
2022/04/09 10:14:54;;;;;;;1.60;0.50;;;9.20;1.00;;;;;;5106839;28;20443;-60
2022/04/09 10:17:22;;;;;;;1.27;0.70;;;9.30;1.00;;;;;;5111920;28;20416;-60
2022/04/09 10:19:55;;;;;;;1.40;0.60;;;9.00;99.90;;;;;;5112347;28;20436;-60
2022/04/09 10:22:24;;;;;;;3.33;0.52;;;8.50;1.00;;;;;;5107666;28;20432;-59
2022/04/09 10:24:52;;;;;;;1.40;0.52;;;8.60;1.00;;;;;;5111172;28;20822;-59
2022/04/09 10:27:35;;;;;;;0.82;0.50;;;8.60;99.90;;;;;;5110370;28;20425;-59
2022/04/09 10:30:04;;;;;;;0.82;0.50;;;8.60;99.90;;;;;;5112006;28;20424;-59
2022/04/09 10:32:42;;;;;;;1.30;0.50;;;8.80;99.90;;;;;;5109814;28;20502;-60
2022/04/09 10:35:24;;;;;;;2.08;0.50;;;9.10;99.90;;;;;;5112874;28;20685;-60
2022/04/09 10:38:20;;;;;;;0.90;0.40;;;9.40;99.90;;;;;;5107495;28;20432;-60
2022/04/09 10:41:23;;;;;;;0.60;0.40;;;9.70;15.90;;;;;;5105826;28;20893;-60
2022/04/09 10:43:51;;;;;;;1.10;0.63;;;9.70;1.00;;;;;;5114488;28;20743;-59
2022/04/09 10:46:21;;;;;;;1.00;0.60;;;9.40;1.00;;;;;;5110027;28;20436;-57
2022/04/09 10:48:49;;;;;;;0.80;0.50;;;9.50;1.00;;;;;;5106299;28;20460;-60
2022/04/09 10:51:16;;;;;;;0.95;0.60;;;10.00;1.00;;;;;;5111437;28;20482;-59
2022/04/09 10:53:44;;;;;;;2.22;0.50;;;10.80;1.00;;;;;;5113551;28;20424;-58
2022/04/09 10:56:13;;;;;;;1.00;0.50;;;10.90;1.00;;;;;;5111192;28;20459;-60
2022/04/09 10:58:59;;;;;;;2.45;0.60;;;10.90;1.00;;;;;;5108940;28;20871;-61
2022/04/09 11:01:52;;;;;;;1.25;0.50;;;10.70;1.00;;;;;;5111436;28;20413;-58
2022/04/09 11:04:42;;;;;;;1.00;0.50;;;10.50;1.00;;;;;;5105202;28;20424;-60
2022/04/09 11:07:12;;;;;;;1.48;0.60;;;10.90;1.00;;;;;;5107134;28;20426;-61
2022/04/09 11:09:48;;;;;;;1.25;0.50;;;11.20;1.00;;;;;;5111468;28;20700;-59
2022/04/09 11:12:16;;;;;;;0.90;0.40;;;11.30;1.00;;;;;;5102408;28;20428;-60
2022/04/09 11:14:45;;;;;;;1.00;0.50;;;11.10;1.00;;;;;;5109694;28;21026;-61
2022/04/09 11:17:23;;;;;;;1.58;0.57;;;10.40;1.00;;;;;;5108512;28;20432;-60
2022/04/09 11:19:50;;;;;;;1.30;0.70;;;10.50;1.00;;;;;;5103053;28;20751;-61
2022/04/09 11:22:17;;;;;;;2.80;0.60;;;10.40;1.00;;;;;;5103249;28;20687;-60
2022/04/09 11:24:44;;;;;;;1.30;0.60;;;10.20;1.00;;;;;;5100936;28;20734;-60
2022/04/09 11:27:11;;;;;;;2.10;0.50;;;10.40;1.00;;;;;;5108256;28;20614;-60
2022/04/09 11:29:40;;;;;;;1.48;0.60;;;10.20;1.00;;;;;;5103119;28;20438;-58
2022/04/09 11:32:19;;;;;;;0.75;0.40;;;10.10;1.00;;;;;;5107925;28;20439;-60
2022/04/09 11:34:51;;;;;;;1.40;0.60;;;10.80;1.00;;;;;;5107174;28;20450;-60
2022/04/09 11:37:19;;;;;;;2.10;0.40;;;11.40;1.00;;;;;;5112439;28;20439;-60
2022/04/09 11:39:48;;;;;;;1.75;0.50;;;11.50;1.00;;;;;;5113236;28;20475;-60
2022/04/09 11:42:16;;;;;;;0.60;0.40;;;11.20;1.00;;;;;;5110812;28;20518;-59
2022/04/09 11:44:43;;;;;;;0.80;0.50;;;11.20;1.00;;;;;;5108692;28;20853;-59
2022/04/09 11:47:13;;;;;;;1.10;0.50;;;11.90;1.00;;;;;;5107348;28;21291;-60
2022/04/09 11:49:41;;;;;;;0.80;0.47;;;12.40;1.00;;;;;;5108121;27;20432;-60
2022/04/09 11:52:10;;;;;;;1.40;0.50;;;12.40;1.00;;;;;;5113232;28;20456;-60
2022/04/09 11:54:38;;;;;;;2.60;0.60;;;11.80;1.00;;;;;;5111627;28;20435;-59
2022/04/09 11:57:11;;;;;;;1.10;0.40;;;11.80;1.00;;;;;;5113401;28;21166;-59
2022/04/09 11:59:39;;;;;;;1.92;0.50;;;11.60;1.00;;;;;;5110491;28;20424;-59
2022/04/09 12:02:19;;;;;;;2.42;0.50;;;11.50;1.00;;;;;;5110162;28;20515;-60
2022/04/09 12:04:46;;;;;;;0.80;0.50;;;11.50;1.00;;;;;;5099530;28;20514;-60
2022/04/09 12:07:15;;;;;;;0.88;0.50;;;11.40;1.00;;;;;;5106759;28;20440;-59
2022/04/09 12:09:43;;;;;;;1.10;0.50;;;11.00;1.00;;;;;;5107858;28;20435;-60
2022/04/09 12:12:10;;;;;;;0.80;0.50;;;10.80;1.00;;;;;;5112640;28;20741;-59
2022/04/09 12:14:39;;;;;;;0.97;0.50;;;10.40;1.00;;;;;;5110884;28;20522;-59
2022/04/09 12:17:11;;;;;;;1.00;0.50;;;10.70;1.00;;;;;;5097053;28;20448;-59
2022/04/09 12:19:43;;;;;;;1.45;0.50;;;10.80;1.00;;;;;;5100301;28;20434;-60
2022/04/09 12:22:19;;;;;;;1.30;0.50;;;10.80;1.00;;;;;;5110235;28;20481;-59
2022/04/09 12:24:53;;;;;;;1.30;0.50;;;10.90;1.00;;;;;;5102330;28;20448;-59
2022/04/09 12:27:22;;;;;;;0.88;0.50;;;11.30;1.00;;;;;;5108926;28;20428;-59
2022/04/09 12:29:55;;;;;;;1.65;0.60;;;11.60;1.00;;;;;;5101653;28;20512;-58
2022/04/09 12:32:25;;;;;;;1.77;0.57;;;11.80;1.00;;;;;;5110120;28;20575;-59
2022/04/09 12:34:56;;;;;;;0.80;0.40;;;11.00;1.00;;;;;;5109007;28;20524;-59
2022/04/09 12:37:24;;;;;;;0.63;0.40;;;10.40;1.00;;;;;;5112797;28;20455;-59
2022/04/09 12:39:52;;;;;;;1.60;0.57;;;10.50;1.00;;;;;;5106827;28;20428;-59
2022/04/09 12:42:31;;;;;;;1.10;0.50;;;11.20;1.00;;;;;;5111046;28;20481;-61
2022/04/09 12:45:12;;;;;;;1.35;0.40;;;11.50;1.00;;;;;;5107937;28;20492;-58
2022/04/09 12:47:40;;;;;;;1.48;0.40;;;11.20;1.00;;;;;;5109713;28;20423;-57
2022/04/09 12:50:22;;;;;;;1.50;0.40;;;11.00;1.00;;;;;;5111909;28;20451;-59
2022/04/09 12:52:50;;;;;;;0.80;0.40;;;11.30;1.00;;;;;;5110895;28;20467;-61
2022/04/09 12:55:19;;;;;;;0.77;0.40;;;12.00;1.00;;;;;;5111676;28;20474;-60
2022/04/09 12:57:46;;;;;;;1.30;0.50;;;12.30;1.00;;;;;;5105675;28;20785;-59
2022/04/09 13:00:14;;;;;;;0.80;0.50;;;11.40;1.00;;;;;;5103149;28;20521;-59
2022/04/09 13:02:43;;;;;;;1.52;0.50;;;11.50;1.00;;;;;;5098108;28;20537;-59
2022/04/09 13:05:10;;;;;;;1.17;0.50;;;11.70;1.00;;;;;;5111457;28;20460;-59